GMFM

Bassatine Airport

Meknes, Morocco
TAF GMFM 221100Z 2212/2318 28008KT 8000 FEW013 BKN016TCU TEMPO 2212/2224 5000 -SHRA
Issued Valid From Valid To
Jan-22 @ 11:00 UTC
(6 hours ago)
Jan-22 @ 12:00 UTC
(5 hours ago)
Jan-23 @ 18:00 UTC
(-1 days ago)
Jan-22 @ 12:00 to Jan-23 @ 18:00
TAF GMFM 221100Z 2212/2318 28008KT 8000 FEW013 BKN016TCU
Wind Visibility Clouds
280° at 8 knots 7,998 meters
  • Few at 1,300' AGL
  • Broken at 1,600' AGL
Temporary Jan-22 @ 12:00 to Jan-23 @ 00:00
TEMPO 2212/2224 5000 -SHRA
Visibility Conditions
5,005 meters
  • Light Rain
TAF GMFM 221100Z 2212/2318 28008KT 8000 FEW013 BKN016TCU TEMPO 2212/2224 5000 -SHRA
Issued Jan-22 @ 11:00 UTC
(6 hours ago)
Valid From Jan-22 @ 12:00 UTC
(5 hours ago)
Valid To Jan-23 @ 18:00 UTC
(-1 days ago)
Jan-22 @ 12:00 - Jan-23 @ 18:00
Wind Visibility
280° at 8 knots 7,998 meters
Clouds
  • Few at 1,300' AGL
  • Broken at 1,600' AGL
Temporary Jan-22 @ 12:00 - Jan-23 @ 00:00
Conditions
  • Light Rain